createdAt,value
2023-01-13T00:01:12.788Z,52.18
2023-01-13T00:03:39.935Z,53.06
2023-01-13T00:06:07.399Z,54.61
2023-01-13T00:08:36.099Z,54.87
2023-01-13T00:11:03.242Z,55.52
2023-01-13T00:13:31.978Z,56.05
2023-01-13T00:16:04.139Z,55.16
2023-01-13T00:18:31.494Z,53.95
2023-01-13T00:21:00.441Z,51.68
2023-01-13T00:23:28.507Z,52.75
2023-01-13T00:25:59.945Z,54.63
2023-01-13T00:28:27.317Z,55.05
2023-01-13T00:30:56.529Z,55.92
2023-01-13T00:33:23.695Z,54.81
2023-01-13T00:36:00.375Z,55.80
2023-01-13T00:38:27.710Z,53.67
2023-01-13T00:40:58.356Z,51.86
2023-01-13T00:43:26.937Z,53.74
2023-01-13T00:45:54.580Z,54.63
2023-01-13T00:48:22.685Z,55.07
2023-01-13T00:51:06.447Z,54.08
2023-01-13T00:53:35.003Z,54.93
2023-01-13T00:56:06.431Z,54.59
2023-01-13T00:58:34.328Z,52.86
2023-01-13T01:01:06.331Z,52.34
2023-01-13T01:03:33.882Z,53.87
2023-01-13T01:06:13.442Z,52.43
2023-01-13T01:08:40.660Z,52.86
2023-01-13T01:11:13.136Z,50.99
2023-01-13T01:13:41.394Z,51.77
2023-01-13T01:16:14.063Z,52.03
2023-01-13T01:18:43.561Z,51.08
2023-01-13T01:21:10.815Z,50.51
2023-01-13T01:23:38.091Z,52.58
2023-01-13T01:26:10.849Z,53.17
2023-01-13T01:28:37.999Z,54.71
2023-01-13T01:31:32.073Z,54.26
2023-01-13T01:33:59.684Z,53.37
2023-01-13T01:36:27.074Z,53.26
2023-01-13T01:38:58.857Z,53.30
2023-01-13T01:41:28.371Z,52.58
2023-01-13T01:44:08.389Z,52.69
2023-01-13T01:46:39.302Z,51.37
2023-01-13T01:49:23.198Z,53.79
2023-01-13T01:52:21.058Z,53.10
2023-01-13T01:54:58.691Z,53.57
2023-01-13T01:57:49.473Z,52.81
2023-01-13T02:00:16.953Z,53.56
2023-01-13T02:02:45.358Z,53.91
2023-01-13T02:05:12.639Z,54.06
2023-01-13T02:07:40.664Z,51.73
2023-01-13T02:10:09.759Z,51.73
2023-01-13T02:12:36.956Z,50.78
2023-01-13T02:15:03.998Z,52.80
2023-01-13T02:17:35.706Z,52.86
2023-01-13T02:20:34.320Z,51.06
2023-01-13T02:23:01.331Z,51.45
2023-01-13T02:25:37.508Z,50.56
2023-01-13T02:28:16.833Z,51.26
2023-01-13T02:31:18.616Z,50.55
2023-01-13T02:34:31.198Z,51.78
2023-01-13T02:37:21.043Z,49.99
2023-01-13T02:39:54.467Z,51.17
2023-01-13T02:42:49.798Z,51.61
2023-01-13T02:45:24.747Z,51.48
2023-01-13T02:47:53.270Z,50.09
2023-01-13T02:50:21.047Z,52.41
2023-01-13T02:52:51.442Z,52.08
2023-01-13T02:55:22.421Z,52.08
2023-01-13T02:57:49.579Z,50.54
2023-01-13T03:00:17.020Z,51.45
2023-01-13T03:02:44.051Z,51.15
2023-01-13T03:05:15.835Z,52.59
2023-01-13T03:07:57.469Z,51.00
2023-01-13T03:10:49.152Z,50.32
2023-01-13T03:13:16.067Z,49.22
2023-01-13T03:16:02.836Z,49.97
2023-01-13T03:18:35.796Z,49.48
2023-01-13T03:21:27.379Z,50.69
2023-01-13T03:24:04.673Z,50.58
2023-01-13T03:26:46.832Z,52.86
2023-01-13T03:29:22.841Z,50.37
2023-01-13T03:32:03.459Z,52.15
2023-01-13T03:34:33.199Z,49.93
2023-01-13T03:37:02.241Z,53.15
2023-01-13T03:39:31.354Z,51.21
2023-01-13T03:42:01.611Z,49.86
2023-01-13T03:44:33.950Z,49.70
2023-01-13T03:47:49.330Z,49.89
2023-01-13T03:50:24.539Z,48.15
2023-01-13T03:52:55.182Z,49.34
2023-01-13T03:55:23.517Z,49.99
2023-01-13T03:58:26.615Z,51.60
2023-01-13T04:01:04.361Z,50.48
2023-01-13T04:04:09.764Z,49.74
2023-01-13T04:07:00.582Z,51.99
2023-01-13T04:09:34.626Z,50.72
2023-01-13T04:12:51.242Z,51.13
2023-01-13T04:15:19.218Z,50.95
2023-01-13T04:17:46.200Z,50.75
2023-01-13T04:20:13.549Z,49.49
2023-01-13T04:22:40.485Z,48.98
2023-01-13T04:25:08.132Z,47.91
2023-01-13T04:27:35.339Z,50.16
2023-01-13T04:30:02.281Z,48.82
2023-01-13T04:32:29.260Z,48.41
2023-01-13T04:34:56.191Z,46.34
2023-01-13T04:37:23.116Z,47.32
2023-01-13T04:39:50.060Z,47.14
2023-01-13T04:42:16.953Z,47.48
2023-01-13T04:44:43.915Z,46.21
2023-01-13T04:47:10.798Z,47.58
2023-01-13T04:49:37.746Z,47.21
2023-01-13T04:52:07.127Z,47.74
2023-01-13T04:54:34.073Z,46.52
2023-01-13T04:57:01.038Z,47.65
2023-01-13T04:59:27.929Z,48.38
2023-01-13T05:01:54.943Z,47.68
2023-01-13T05:04:21.926Z,48.43
2023-01-13T05:06:48.913Z,50.04
2023-01-13T05:09:15.873Z,48.16
2023-01-13T05:12:01.587Z,47.37
2023-01-13T05:14:46.943Z,47.50
2023-01-13T05:17:18.994Z,46.93
2023-01-13T05:19:45.992Z,46.14
2023-01-13T05:22:31.834Z,46.69
2023-01-13T05:25:17.696Z,48.78
2023-01-13T05:27:44.702Z,46.69
2023-01-13T05:30:12.057Z,48.14
2023-01-13T05:32:39.032Z,47.57
2023-01-13T05:35:06.041Z,50.65
2023-01-13T05:37:33.099Z,51.02
2023-01-13T05:40:18.553Z,48.83
2023-01-13T05:43:04.276Z,49.01
2023-01-13T05:45:31.631Z,51.23
2023-01-13T05:47:58.636Z,51.53
2023-01-13T05:50:25.556Z,48.99
2023-01-13T05:52:52.561Z,49.82
2023-01-13T05:55:19.448Z,49.77
2023-01-13T05:57:46.442Z,49.73
2023-01-13T06:00:14.674Z,49.50
2023-01-13T06:02:41.700Z,50.20
2023-01-13T06:05:08.978Z,49.42
2023-01-13T06:07:35.926Z,48.57
2023-01-13T06:10:02.870Z,49.61
2023-01-13T06:12:29.859Z,48.64
2023-01-13T06:14:56.772Z,47.72
2023-01-13T06:17:23.754Z,47.76
2023-01-13T06:19:51.195Z,46.80
2023-01-13T06:22:26.847Z,47.74
2023-01-13T06:24:54.137Z,48.04
2023-01-13T06:27:21.549Z,47.80
2023-01-13T06:29:48.599Z,46.98
2023-01-13T06:32:16.886Z,47.54
2023-01-13T06:34:45.434Z,49.00
2023-01-13T06:37:13.025Z,47.78
2023-01-13T06:39:40.693Z,48.36
2023-01-13T06:42:26.195Z,49.06
2023-01-13T06:44:53.282Z,47.77
2023-01-13T06:47:22.382Z,48.31
2023-01-13T06:49:49.424Z,47.82
2023-01-13T06:52:16.433Z,47.24
2023-01-13T06:54:43.416Z,47.70
2023-01-13T06:57:10.352Z,49.45
2023-01-13T06:59:37.359Z,48.42
2023-01-13T07:02:04.348Z,49.85
2023-01-13T07:04:31.610Z,48.05
2023-01-13T07:06:59.765Z,48.76
2023-01-13T07:09:26.775Z,49.25
2023-01-13T07:11:53.983Z,47.81
2023-01-13T07:14:39.791Z,47.75
2023-01-13T07:17:06.792Z,50.22
2023-01-13T07:19:33.688Z,48.99
2023-01-13T07:22:00.656Z,50.20
2023-01-13T07:24:27.875Z,50.58
2023-01-13T07:26:54.873Z,49.97
2023-01-13T07:29:21.905Z,50.80
2023-01-13T07:31:50.127Z,50.36
2023-01-13T07:34:17.603Z,52.72
2023-01-13T07:36:44.598Z,52.30
2023-01-13T07:39:11.510Z,51.85
2023-01-13T07:41:57.063Z,53.04
2023-01-13T07:44:24.057Z,55.73
2023-01-13T07:46:50.959Z,55.44
2023-01-13T07:49:17.999Z,55.89
2023-01-13T07:51:44.971Z,54.60
2023-01-13T07:54:13.033Z,53.39
2023-01-13T07:56:39.984Z,54.81
2023-01-13T07:59:06.930Z,56.15
2023-01-13T08:01:34.034Z,55.63
2023-01-13T08:04:01.021Z,54.03
2023-01-13T08:06:28.133Z,54.13
2023-01-13T08:08:55.061Z,53.66
2023-01-13T08:11:23.583Z,54.04
2023-01-13T08:13:50.764Z,55.30
2023-01-13T08:16:17.784Z,54.44
2023-01-13T08:18:44.983Z,55.47
2023-01-13T08:21:13.372Z,53.38
2023-01-13T08:23:44.275Z,55.53
2023-01-13T08:26:17.263Z,56.05
2023-01-13T08:28:44.862Z,54.89
2023-01-13T08:31:13.468Z,52.94
2023-01-13T08:33:40.707Z,53.38
2023-01-13T08:36:09.179Z,55.24
2023-01-13T08:38:36.340Z,54.93
2023-01-13T08:41:15.295Z,53.47
2023-01-13T08:43:42.304Z,52.80
2023-01-13T08:46:09.386Z,54.44
2023-01-13T08:48:37.172Z,54.20
2023-01-13T08:51:08.126Z,54.76
2023-01-13T08:53:35.230Z,52.63
2023-01-13T08:56:02.201Z,53.19
2023-01-13T08:58:29.496Z,54.50
2023-01-13T09:00:56.562Z,53.59
2023-01-13T09:03:23.617Z,54.06
2023-01-13T09:05:50.573Z,53.92
2023-01-13T09:08:17.487Z,53.34
2023-01-13T09:10:44.750Z,53.77
2023-01-13T09:13:13.196Z,55.40
2023-01-13T09:15:45.207Z,55.23
2023-01-13T09:18:12.571Z,54.08
2023-01-13T09:20:39.550Z,54.44
2023-01-13T09:23:09.705Z,54.60
2023-01-13T09:25:37.174Z,55.14
2023-01-13T09:28:08.722Z,55.09
2023-01-13T09:30:37.026Z,53.27
2023-01-13T09:33:22.664Z,52.92
2023-01-13T09:35:49.696Z,52.97
2023-01-13T09:38:16.770Z,53.66
2023-01-13T09:40:44.077Z,54.99
2023-01-13T09:43:44.825Z,53.88
2023-01-13T09:46:39.571Z,53.00
2023-01-13T09:49:09.540Z,55.58
2023-01-13T09:51:39.904Z,54.92
2023-01-13T09:54:12.448Z,53.70
2023-01-13T09:56:39.387Z,53.42
2023-01-13T09:59:11.262Z,51.85
2023-01-13T10:01:59.508Z,52.51
2023-01-13T10:04:26.548Z,52.13
2023-01-13T10:06:56.426Z,52.53
2023-01-13T10:09:33.319Z,52.92
2023-01-13T10:12:18.788Z,54.47
2023-01-13T10:14:53.472Z,55.51
2023-01-13T10:17:36.688Z,55.25
2023-01-13T10:20:21.313Z,54.03
2023-01-13T10:23:01.917Z,54.53
2023-01-13T10:25:46.202Z,55.57
2023-01-13T10:28:16.606Z,54.08
2023-01-13T10:30:46.500Z,52.88
2023-01-13T10:33:20.867Z,54.39
2023-01-13T10:36:01.326Z,53.97
2023-01-13T10:38:41.540Z,54.03
2023-01-13T10:41:20.553Z,52.07
2023-01-13T10:44:16.056Z,51.07
2023-01-13T10:46:54.062Z,49.60
2023-01-13T10:49:38.628Z,50.03
2023-01-13T10:52:26.461Z,52.01
2023-01-13T10:54:53.939Z,51.10
2023-01-13T10:57:23.065Z,54.03
2023-01-13T10:59:51.131Z,53.67
2023-01-13T11:02:27.181Z,52.47
2023-01-13T11:04:54.295Z,52.37
2023-01-13T11:07:26.828Z,51.90
2023-01-13T11:10:05.943Z,52.99
2023-01-13T11:12:54.611Z,52.24
2023-01-13T11:15:23.825Z,52.63
2023-01-13T11:18:32.371Z,53.11
2023-01-13T11:20:59.152Z,53.08
2023-01-13T11:23:37.237Z,52.15
2023-01-13T11:26:06.996Z,51.32
2023-01-13T11:28:36.046Z,50.74
2023-01-13T11:31:17.633Z,51.79
2023-01-13T11:33:48.764Z,52.73
2023-01-13T11:36:20.858Z,54.77
2023-01-13T11:38:50.766Z,53.44
2023-01-13T11:41:41.032Z,52.56
2023-01-13T11:44:18.581Z,52.12
2023-01-13T11:46:46.186Z,51.47
2023-01-13T11:49:26.795Z,55.69
2023-01-13T11:52:32.861Z,56.89
2023-01-13T11:55:02.430Z,55.46
2023-01-13T11:58:08.561Z,54.63
2023-01-13T12:01:10.890Z,53.44
2023-01-13T12:03:48.634Z,54.57
2023-01-13T12:06:24.279Z,57.24
2023-01-13T12:09:09.941Z,57.02
2023-01-13T12:12:19.936Z,57.56
2023-01-13T12:15:14.930Z,54.65
2023-01-13T12:17:54.201Z,55.35
2023-01-13T12:20:45.736Z,54.78
2023-01-13T12:23:57.130Z,64.83
2023-01-13T12:26:24.244Z,70.27
2023-01-13T12:29:19.105Z,70.88
2023-01-13T12:31:49.185Z,70.50
2023-01-13T12:34:50.024Z,68.87
2023-01-13T12:37:23.444Z,71.27
2023-01-13T12:40:02.762Z,71.71
2023-01-13T12:43:07.565Z,71.46
2023-01-13T12:45:34.562Z,70.79
2023-01-13T12:48:01.752Z,70.95
2023-01-13T12:50:29.283Z,70.21
2023-01-13T12:52:57.441Z,69.01
2023-01-13T12:55:25.587Z,70.14
2023-01-13T12:58:04.618Z,68.50
2023-01-13T13:00:56.989Z,69.62
2023-01-13T13:03:34.201Z,67.72
2023-01-13T13:06:07.410Z,64.82
2023-01-13T13:09:03.332Z,65.44
2023-01-13T13:11:58.103Z,64.67
2023-01-13T13:14:37.381Z,62.97
2023-01-13T13:17:05.375Z,64.02
2023-01-13T13:19:32.296Z,62.54
2023-01-13T13:22:19.136Z,61.91
2023-01-13T13:24:48.993Z,61.47
2023-01-13T13:27:20.337Z,61.10
2023-01-13T13:30:02.243Z,60.56
2023-01-13T13:32:53.906Z,69.15
2023-01-13T13:35:20.721Z,71.89
2023-01-13T13:38:22.513Z,70.54
2023-01-13T13:41:08.453Z,72.36
2023-01-13T13:44:01.579Z,71.06
2023-01-13T13:46:47.921Z,70.11
2023-01-13T13:49:21.505Z,71.54
2023-01-13T13:52:22.371Z,72.88
2023-01-13T13:54:52.107Z,72.86
2023-01-13T13:57:39.873Z,71.66
2023-01-13T14:00:18.100Z,71.80
2023-01-13T14:02:56.755Z,72.85
2023-01-13T14:05:25.571Z,70.20
2023-01-13T14:08:15.177Z,71.40
2023-01-13T14:10:43.405Z,73.00
2023-01-13T14:13:30.336Z,72.95
2023-01-13T14:16:04.211Z,72.76
2023-01-13T14:18:32.786Z,73.72
2023-01-13T14:21:00.506Z,73.48
2023-01-13T14:23:29.635Z,72.26
2023-01-13T14:26:01.873Z,70.46
2023-01-13T14:28:32.516Z,71.16
2023-01-13T14:30:59.780Z,71.03
2023-01-13T14:33:46.294Z,70.47
2023-01-13T14:36:17.616Z,71.10
2023-01-13T14:39:03.764Z,69.79
2023-01-13T14:42:00.049Z,70.11
2023-01-13T14:44:35.256Z,68.91
2023-01-13T14:47:04.376Z,67.38
2023-01-13T14:49:38.292Z,68.49
2023-01-13T14:52:22.507Z,65.31
2023-01-13T14:54:58.437Z,63.74
2023-01-13T14:57:27.789Z,63.82
2023-01-13T15:00:13.816Z,64.46
2023-01-13T15:02:53.519Z,62.41
2023-01-13T15:05:22.492Z,60.63
2023-01-13T15:08:14.057Z,61.08
2023-01-13T15:11:01.005Z,62.51
2023-01-13T15:13:41.180Z,64.89
2023-01-13T15:16:21.124Z,64.73
2023-01-13T15:18:48.273Z,66.86
2023-01-13T15:21:15.870Z,63.72
2023-01-13T15:23:43.229Z,62.03
2023-01-13T15:26:23.866Z,61.41
2023-01-13T15:28:51.563Z,62.25
2023-01-13T15:31:18.979Z,60.44
2023-01-13T15:33:45.959Z,58.89
2023-01-13T15:36:29.221Z,62.49
2023-01-13T15:38:56.371Z,63.75
2023-01-13T15:41:41.797Z,61.58
2023-01-13T15:44:29.739Z,60.55
2023-01-13T15:46:56.937Z,60.11
2023-01-13T15:49:27.899Z,60.57
2023-01-13T15:51:54.936Z,59.19
2023-01-13T15:54:24.602Z,56.79
2023-01-13T15:56:51.622Z,58.29
2023-01-13T15:59:21.029Z,60.14
2023-01-13T16:01:48.088Z,57.64
2023-01-13T16:04:15.164Z,59.06
2023-01-13T16:06:42.170Z,56.95
2023-01-13T16:09:12.822Z,56.84
2023-01-13T16:11:39.814Z,58.24
2023-01-13T16:14:06.755Z,60.43
2023-01-13T16:16:33.749Z,58.30
2023-01-13T16:19:00.854Z,58.35
2023-01-13T16:21:27.825Z,61.32
2023-01-13T16:23:54.913Z,61.85
2023-01-13T16:26:23.700Z,64.60
2023-01-13T16:28:51.868Z,62.66
2023-01-13T16:31:30.784Z,60.38
2023-01-13T16:33:58.738Z,60.19
2023-01-13T16:36:25.725Z,61.55
2023-01-13T16:38:53.126Z,63.72
2023-01-13T16:41:20.736Z,62.13
2023-01-13T16:43:48.173Z,62.66
2023-01-13T16:46:22.739Z,59.55
2023-01-13T16:48:49.923Z,60.09
2023-01-13T16:51:16.827Z,58.64
2023-01-13T16:53:43.765Z,60.17
2023-01-13T16:56:35.393Z,58.16
2023-01-13T16:59:14.164Z,56.55
2023-01-13T17:01:42.107Z,59.21
2023-01-13T17:04:14.964Z,59.60
2023-01-13T17:06:55.767Z,58.40
2023-01-13T17:09:25.162Z,58.31
2023-01-13T17:11:52.212Z,58.49
2023-01-13T17:14:21.816Z,58.53
2023-01-13T17:16:52.357Z,57.72
2023-01-13T17:19:20.496Z,58.92
2023-01-13T17:21:47.782Z,60.00
2023-01-13T17:24:14.793Z,58.46
2023-01-13T17:26:44.257Z,58.35
2023-01-13T17:29:16.102Z,58.71
2023-01-13T17:31:43.265Z,58.77
2023-01-13T17:34:10.652Z,57.82
2023-01-13T17:36:37.702Z,56.54
2023-01-13T17:39:04.874Z,56.52
2023-01-13T17:41:31.759Z,57.02
2023-01-13T17:43:58.774Z,58.21
2023-01-13T17:46:25.704Z,57.08
2023-01-13T17:48:53.827Z,56.43
2023-01-13T17:51:22.562Z,55.97
2023-01-13T17:53:49.645Z,56.35
2023-01-13T17:56:17.179Z,55.79
2023-01-13T17:58:45.544Z,55.05
2023-01-13T18:01:20.071Z,54.64
2023-01-13T18:03:47.295Z,54.10
2023-01-13T18:06:18.999Z,55.23
2023-01-13T18:08:46.227Z,56.38
2023-01-13T18:11:14.078Z,56.74
2023-01-13T18:13:43.954Z,57.56
2023-01-13T18:16:11.409Z,58.81
2023-01-13T18:18:39.346Z,62.24
2023-01-13T18:21:25.313Z,60.66
2023-01-13T18:24:11.031Z,57.50
2023-01-13T18:26:56.576Z,57.63
2023-01-13T18:29:23.518Z,57.66
2023-01-13T18:31:50.631Z,58.16
2023-01-13T18:34:17.629Z,57.81
2023-01-13T18:36:44.675Z,58.57
2023-01-13T18:39:12.075Z,58.11
2023-01-13T18:41:57.790Z,57.89
2023-01-13T18:44:24.772Z,57.58
2023-01-13T18:46:51.758Z,56.47
2023-01-13T18:49:18.734Z,58.46
2023-01-13T18:51:45.767Z,57.00
2023-01-13T18:54:12.707Z,57.60
2023-01-13T18:56:39.755Z,56.61
2023-01-13T18:59:06.750Z,56.58
2023-01-13T19:01:33.901Z,55.34
2023-01-13T19:04:03.233Z,56.39
2023-01-13T19:06:33.945Z,56.93
2023-01-13T19:09:01.932Z,56.71
2023-01-13T19:11:30.632Z,59.34
2023-01-13T19:13:57.791Z,57.11
2023-01-13T19:16:24.893Z,55.82
2023-01-13T19:18:51.876Z,57.01
2023-01-13T19:21:18.869Z,59.85
2023-01-13T19:23:46.032Z,60.83
2023-01-13T19:26:13.208Z,58.90
2023-01-13T19:28:40.597Z,60.29
2023-01-13T19:31:09.491Z,64.17
2023-01-13T19:33:38.795Z,63.45
2023-01-13T19:36:06.898Z,60.58
2023-01-13T19:38:33.877Z,58.57
2023-01-13T19:41:02.534Z,57.91
2023-01-13T19:43:48.351Z,56.24
2023-01-13T19:46:15.299Z,55.80
2023-01-13T19:48:43.150Z,55.52
2023-01-13T19:51:10.527Z,55.80
2023-01-13T19:53:37.499Z,55.25
2023-01-13T19:56:04.631Z,55.29
2023-01-13T19:58:31.627Z,54.56
2023-01-13T20:00:58.663Z,54.81
2023-01-13T20:03:26.960Z,54.88
2023-01-13T20:05:54.072Z,56.17
2023-01-13T20:08:22.150Z,56.29
2023-01-13T20:10:49.226Z,56.38
2023-01-13T20:13:16.435Z,55.92
2023-01-13T20:15:44.008Z,55.53
2023-01-13T20:18:11.191Z,57.79
2023-01-13T20:20:38.105Z,57.80
2023-01-13T20:23:05.081Z,57.66
2023-01-13T20:25:32.083Z,58.36
2023-01-13T20:28:01.230Z,57.60
2023-01-13T20:30:28.218Z,59.53
2023-01-13T20:32:55.211Z,60.05
2023-01-13T20:35:22.266Z,58.45
2023-01-13T20:37:49.164Z,60.52
2023-01-13T20:40:16.443Z,62.00
2023-01-13T20:42:45.237Z,63.59
2023-01-13T20:45:21.630Z,61.60
2023-01-13T20:47:48.592Z,60.13
2023-01-13T20:50:15.865Z,61.88
2023-01-13T20:52:42.999Z,60.59
2023-01-13T20:55:10.186Z,61.96
2023-01-13T20:57:37.130Z,59.61
2023-01-13T21:00:04.712Z,59.61
2023-01-13T21:02:31.721Z,59.14
2023-01-13T21:04:58.716Z,57.13
2023-01-13T21:07:25.668Z,58.10
2023-01-13T21:09:52.708Z,58.23
2023-01-13T21:12:45.792Z,56.49
2023-01-13T21:15:20.165Z,57.52
2023-01-13T21:18:06.684Z,61.24
2023-01-13T21:20:34.510Z,60.53
2023-01-13T21:23:01.881Z,58.36
2023-01-13T21:25:29.389Z,56.76
2023-01-13T21:27:59.980Z,56.79
2023-01-13T21:30:26.939Z,57.36
2023-01-13T21:32:53.899Z,56.77
2023-01-13T21:35:20.875Z,60.18
2023-01-13T21:37:47.985Z,60.03
2023-01-13T21:40:15.110Z,58.84
2023-01-13T21:43:00.821Z,57.83
2023-01-13T21:45:46.409Z,59.13
2023-01-13T21:48:13.434Z,57.90
2023-01-13T21:50:40.530Z,58.30
2023-01-13T21:53:08.174Z,60.20
2023-01-13T21:55:36.711Z,58.65
2023-01-13T21:58:10.674Z,61.09
2023-01-13T22:00:38.055Z,58.87
2023-01-13T22:03:06.223Z,60.06
2023-01-13T22:05:33.363Z,58.15
2023-01-13T22:08:00.692Z,58.74
2023-01-13T22:10:29.891Z,57.81
2023-01-13T22:12:58.525Z,58.68
2023-01-13T22:15:27.127Z,57.56
2023-01-13T22:17:54.599Z,57.82
2023-01-13T22:20:21.636Z,58.95
2023-01-13T22:22:48.895Z,59.88
2023-01-13T22:25:16.335Z,59.94
2023-01-13T22:27:44.807Z,57.90
2023-01-13T22:30:18.185Z,61.17
2023-01-13T22:32:45.728Z,57.45
2023-01-13T22:35:12.995Z,61.84
2023-01-13T22:37:40.165Z,61.26
2023-01-13T22:40:08.263Z,62.67
2023-01-13T22:42:40.961Z,58.88
2023-01-13T22:45:10.176Z,57.18
2023-01-13T22:47:37.175Z,58.25
2023-01-13T22:50:05.162Z,57.97
2023-01-13T22:52:33.557Z,59.90
2023-01-13T22:55:00.991Z,60.10
2023-01-13T22:57:36.054Z,60.28
2023-01-13T23:00:10.447Z,60.53
2023-01-13T23:02:38.397Z,61.73
2023-01-13T23:05:05.693Z,64.36
2023-01-13T23:07:32.636Z,67.26
2023-01-13T23:10:00.025Z,66.21
2023-01-13T23:12:26.929Z,65.71
2023-01-13T23:14:54.622Z,68.32
2023-01-13T23:17:21.555Z,67.50
2023-01-13T23:19:48.498Z,67.15
2023-01-13T23:22:15.658Z,64.84
2023-01-13T23:24:42.650Z,65.22
2023-01-13T23:27:09.555Z,66.45
2023-01-13T23:29:36.757Z,67.36
2023-01-13T23:32:03.831Z,66.83
2023-01-13T23:34:30.776Z,64.78
2023-01-13T23:36:57.781Z,64.75
2023-01-13T23:39:24.790Z,65.31
2023-01-13T23:41:51.773Z,63.52
2023-01-13T23:44:18.716Z,61.62
2023-01-13T23:46:45.696Z,61.13
2023-01-13T23:49:12.659Z,59.60
2023-01-13T23:51:39.856Z,58.14
2023-01-13T23:54:06.788Z,58.88
2023-01-13T23:56:35.071Z,59.27
2023-01-13T23:59:01.996Z,57.04
